Burgtor — V2OR7 — position and weather

sailwx.info

Track history (hours):
 
Tides and Currents Weather Stations Pressure Air Temp Water Temp Dewpoint Dewpoint Depression Visibility Wind Speed Wind Dir Waves Ship Positions

Burgtor

Last reported at 2017-Sep-22 02:00 UTC. Time now 2017-Sep-22 13:40 UTC.
Position N 53°11' E 005°26'.

Length 87 m; draft 3.7 m.

Type: Cargo ship. MMSI: 304665000.

Date/timePositionNaut miles runAvg speedWind from/ knotsBaromVisibWave heightAir tempDewpointWater temp
2017-Sep-22 02:00N 53°11' E 005°26'0 0.0
2017-Sep-22 01:30N 53°11' E 005°26'0 0.0
2017-Sep-22 01:01N 53°11' E 005°26'0 0.0
2017-Sep-22 00:31N 53°11' E 005°26'0 0.0
2017-Sep-22 00:01N 53°11' E 005°26'0 0.0
2017-Sep-21 23:30N 53°11' E 005°26'0 0.0
2017-Sep-21 23:01N 53°11' E 005°26'0 0.0
2017-Sep-21 22:31N 53°11' E 005°26'0 0.0
2017-Sep-21 22:01N 53°11' E 005°26'0 0.0
2017-Sep-21 21:31N 53°11' E 005°26'0 0.0
2017-Sep-21 21:01N 53°11' E 005°26'0 0.0
2017-Sep-21 20:31N 53°11' E 005°26'0 0.0
2017-Sep-21 20:01N 53°11' E 005°26'0 0.0
2017-Sep-21 19:31N 53°11' E 005°26'0 0.0
2017-Sep-21 19:01N 53°11' E 005°26'0 0.0
2017-Sep-21 18:30N 53°11' E 005°26'0 0.0
2017-Sep-21 18:00N 53°11' E 005°26'0 0.0
2017-Sep-21 17:31N 53°11' E 005°26'0 0.0
2017-Sep-21 17:01N 53°11' E 005°26'0 0.0
2017-Sep-21 16:31N 53°11' E 005°26'0 0.0
2017-Sep-21 16:01N 53°11' E 005°26'0 0.0
2017-Sep-21 15:31N 53°11' E 005°26'0 0.0
2017-Sep-21 15:01N 53°11' E 005°26'0 0.0
2017-Sep-21 14:31N 53°11' E 005°26'0 0.0
2017-Sep-21 14:01N 53°11' E 005°26'0 0.0
2017-Sep-21 13:31N 53°11' E 005°26'0 0.0
2017-Sep-21 13:00N 53°11' E 005°26'0 0.0
2017-Sep-21 12:31N 53°11' E 005°26'0 0.0
2017-Sep-21 12:00N 53°11' E 005°26'0 0.0
2017-Sep-21 11:31N 53°11' E 005°26'0 0.0
2017-Sep-21 11:01N 53°11' E 005°26'0 0.0
2017-Sep-21 10:31N 53°11' E 005°26'0 0.0
2017-Sep-21 10:00N 53°11' E 005°26'0 0.0
2017-Sep-21 09:30N 53°11' E 005°26'0 0.0
2017-Sep-21 09:01N 53°11' E 005°26'0 0.0
2017-Sep-21 08:31N 53°11' E 005°26'0 0.0
2017-Sep-21 08:00N 53°11' E 005°26'0 0.2
2017-Sep-21 07:30N 53°11' E 005°26'0 0.0
2017-Sep-21 07:00N 53°11' E 005°26'0 0.0
2017-Sep-21 06:31N 53°11' E 005°26'0 0.0
2017-Sep-21 06:01N 53°11' E 005°26'0 0.0
2017-Sep-21 05:31N 53°11' E 005°26'1 1.2
2017-Sep-21 05:01N 53°11' E 005°25'3 5.0
2017-Sep-21 04:31N 53°11' E 005°21'4 8.2
2017-Sep-21 04:01N 53°14' E 005°15'4 7.9
2017-Sep-21 03:31N 53°16' E 005°10'4 7.4
2017-Sep-21 03:01N 53°19' E 005°09'4 7.7
2017-Sep-21 02:31N 53°19' E 005°02'3 6.8
2017-Sep-21 02:01N 53°18' E 004°57'3 6.0
2017-Sep-21 01:31N 53°21' E 004°57'4 8.8
2017-Sep-21 01:01N 53°25' E 005°01'510.4
2017-Sep-21 00:30N 53°27' E 005°09'510.2
2017-Sep-21 00:00N 53°29' E 005°17'510.2
2017-Sep-20 23:31N 53°30' E 005°26'50 5.3
2017-Sep-20 14:00N 53°27' E 006°50'0 0.0
2017-Sep-20 13:27N 53°27' E 006°50'0 0.0
2017-Sep-20 11:42N 53°27' E 006°50'0 0.0
2017-Sep-20 11:06N 53°27' E 006°50'0 0.0
2017-Sep-20 11:00N 53°27' E 006°50'0 0.0
2017-Sep-20 10:15N 53°27' E 006°50'0 0.0
2017-Sep-20 09:57N 53°27' E 006°50'0 0.0
2017-Sep-20 09:12N 53°27' E 006°50'0 0.0
2017-Sep-20 08:57N 53°27' E 006°50'0 0.0
2017-Sep-20 08:30N 53°27' E 006°50'0 0.0
2017-Sep-20 08:00N 53°27' E 006°50'0 0.0
2017-Sep-20 04:44N 53°27' E 006°50'0 0.0
2017-Sep-20 04:20N 53°27' E 006°50'0 0.0
2017-Sep-19 23:53N 53°27' E 006°50'0 0.0
2017-Sep-19 23:17N 53°27' E 006°50'0 0.0
2017-Sep-19 22:59N 53°27' E 006°50'0 0.0
2017-Sep-19 22:29N 53°27' E 006°50'0 0.0
2017-Sep-19 21:56N 53°27' E 006°50'0 0.0
2017-Sep-19 21:29N 53°27' E 006°50'0 0.0
2017-Sep-19 20:59N 53°27' E 006°50'0 0.0
2017-Sep-19 20:29N 53°27' E 006°50'0 0.0
2017-Sep-19 19:53N 53°27' E 006°50'0 0.0
2017-Sep-19 17:20N 53°27' E 006°50'0 0.1
2017-Sep-19 16:59N 53°27' E 006°50'0 0.0
2017-Sep-19 16:29N 53°27' E 006°50'0 0.0
2017-Sep-19 15:59N 53°27' E 006°50'0 0.0
2017-Sep-19 15:26N 53°27' E 006°50'0 0.0
2017-Sep-19 14:59N 53°27' E 006°50'0 0.0
2017-Sep-19 14:29N 53°27' E 006°50'0 0.0
2017-Sep-19 13:56N 53°27' E 006°50'0 0.0
2017-Sep-19 13:29N 53°27' E 006°50'0 0.0
2017-Sep-19 11:53N 53°27' E 006°50'0 0.0
2017-Sep-19 11:17N 53°27' E 006°50'0 0.0
2017-Sep-19 10:59N 53°27' E 006°50'0 0.0
2017-Sep-19 10:26N 53°27' E 006°50'0 0.0
2017-Sep-19 09:44N 53°27' E 006°50'0 0.0
2017-Sep-19 09:29N 53°27' E 006°50'0 0.0
2017-Sep-19 08:53N 53°27' E 006°50'0 0.0
2017-Sep-19 08:29N 53°27' E 006°50'0 0.0
2017-Sep-19 07:59N 53°27' E 006°50'0 0.0
2017-Sep-19 00:28N 53°27' E 006°50'0 0.7
2017-Sep-19 00:01N 53°27' E 006°50'48 3.7
2017-Sep-18 10:53N 53°34' E 005°30'3 7.6
2017-Sep-18 10:28N 53°33' E 005°25'4 7.8
2017-Sep-18 10:01N 53°32' E 005°19'4 8.2
2017-Sep-18 09:30N 53°31' E 005°13'4 8.3
2017-Sep-18 09:01N 53°29' E 005°06'4 8.7
2017-Sep-18 08:30N 53°27' E 004°59'4 8.7
2017-Sep-18 08:01N 53°26' E 004°53'5 8.7
2017-Sep-18 07:25N 53°24' E 004°45'38 9.0
2017-Sep-18 03:11N 52°51' E 004°13'3 9.6
2017-Sep-18 02:50N 52°48' E 004°10'7 9.7
2017-Sep-18 02:04N 52°42' E 004°03'90 8.3
2017-Sep-17 15:13N 51°36' E 002°24'2 7.8
2017-Sep-17 14:57N 51°34' E 002°22'4 8.1
2017-Sep-17 14:30N 51°31' E 002°18'4 8.3
2017-Sep-17 14:00N 51°28' E 002°15'4 8.6
2017-Sep-17 13:30N 51°24' E 002°12'4 8.8
2017-Sep-17 13:01N 51°20' E 002°09'5 9.3
2017-Sep-17 12:31N 51°16' E 002°06'5 9.2
2017-Sep-17 12:01N 51°12' E 002°01'5 9.7
2017-Sep-17 11:31N 51°10' E 001°55'510.1
2017-Sep-17 11:01N 51°06' E 001°48'510.5
2017-Sep-17 10:30N 51°03' E 001°43'510.8
2017-Sep-17 10:00N 50°59' E 001°37'611.2
2017-Sep-17 09:30N 50°54' E 001°31'1210.7
2017-Sep-17 08:20N 50°43' E 001°24'58 8.8
2017-Sep-17 01:47N 50°18' E 000°02'6 7.6
2017-Sep-17 01:02N 50°16' W 000°07'0 7.4
2017-Sep-17 01:00N 50°16' W 000°07'105 9.3
2017-Sep-16 13:47N 49°49' W 002°44'3 9.5
2017-Sep-16 13:29N 49°48' W 002°49'18 8.9
2017-Sep-16 11:26N 49°40' W 003°14'4 8.6
2017-Sep-16 11:01N 49°39' W 003°19'5 8.4
2017-Sep-16 10:24N 49°36' W 003°26'4 8.2
2017-Sep-16 09:58N 49°35' W 003°31'82 8.3
2017-Sep-16 00:01N 48°53' W 005°19'51 5.8
2017-Sep-15 15:18N 48°02' W 005°13'2 6.4
2017-Sep-15 14:57N 48°01' W 005°10'3 6.3
2017-Sep-15 14:30N 47°59' W 005°07'3 6.4
2017-Sep-15 14:00N 47°57' W 005°03'3 6.3
2017-Sep-15 13:31N 47°55' W 004°59'3 6.3
2017-Sep-15 13:00N 47°53' W 004°56'3 6.7
2017-Sep-15 12:31N 47°51' W 004°52'3 6.8
2017-Sep-15 12:00N 47°49' W 004°48'3 6.8
2017-Sep-15 11:30N 47°47' W 004°44'26 7.4
2017-Sep-15 08:02N 47°31' W 004°14'2 7.3
2017-Sep-15 07:45N 47°30' W 004°11'2 7.4
2017-Sep-15 07:27N 47°29' W 004°08'3 6.6
2017-Sep-15 06:59N 47°27' W 004°05'4 7.7
2017-Sep-15 06:29N 47°25' W 004°00'4 8.0
2017-Sep-15 05:59N 47°22' W 003°56'4 7.8
2017-Sep-15 05:30N 47°20' W 003°52'4 7.9
2017-Sep-15 05:01N 47°17' W 003°47'4 8.0
2017-Sep-15 04:31N 47°15' W 003°42'4 7.9
2017-Sep-15 04:00N 47°12' W 003°38'4 7.8
2017-Sep-15 03:30N 47°10' W 003°33'4 7.7
2017-Sep-15 03:00N 47°08' W 003°28'4 7.4
2017-Sep-15 02:30N 47°06' W 003°24'5 7.4
2017-Sep-15 01:49N 47°02' W 003°19'3 7.1
2017-Sep-15 01:27N 47°00' W 003°16'4 6.9
2017-Sep-15 00:57N 46°58' W 003°12'7 6.6
2017-Sep-14 23:49N 46°53' W 003°04'3 6.3
2017-Sep-14 23:22N 46°51' W 003°01'30 6.5
2017-Sep-14 18:46N 46°33' W 002°27'2 6.5
2017-Sep-14 18:30N 46°32' W 002°25'3 6.6
2017-Sep-14 18:00N 46°29' W 002°21'3 6.5
2017-Sep-14 17:30N 46°27' W 002°17'3 6.5
2017-Sep-14 16:59N 46°25' W 002°14'3 6.7
2017-Sep-14 16:30N 46°24' W 002°10'3 6.8
2017-Sep-14 16:00N 46°21' W 002°06'3 6.8
2017-Sep-14 15:30N 46°19' W 002°02'3 6.7
2017-Sep-14 15:01N 46°17' W 001°58'3 6.8
2017-Sep-14 14:30N 46°15' W 001°55'3 6.7
2017-Sep-14 14:01N 46°13' W 001°51'3 6.4
2017-Sep-14 13:31N 46°11' W 001°48'4 6.5
2017-Sep-14 12:50N 46°08' W 001°42'2 6.3
2017-Sep-14 12:30N 46°08' W 001°40'4 6.2
2017-Sep-14 11:56N 46°07' W 001°34'3 6.5
2017-Sep-14 11:31N 46°07' W 001°30'3 6.7
2017-Sep-14 11:01N 46°06' W 001°26'4 7.1
2017-Sep-14 10:31N 46°06' W 001°21'3 6.6
2017-Sep-14 10:01N 46°06' W 001°16'4 7.6
2017-Sep-14 09:31N 46°09' W 001°14'1 1.4
2017-Sep-14 09:00N 46°09' W 001°13'0 0.0
2017-Sep-14 08:27N 46°09' W 001°13'0 0.0
2017-Sep-14 08:00N 46°09' W 001°13'0 0.0
2017-Sep-14 07:30N 46°09' W 001°13'0 0.0
2017-Sep-14 07:00N 46°09' W 001°13'0 0.0
2017-Sep-14 06:30N 46°09' W 001°13'0 0.0
2017-Sep-14 06:00N 46°09' W 001°13'0 0.0
2017-Sep-14 05:30N 46°09' W 001°13'0 0.0
2017-Sep-14 04:57N 46°09' W 001°13'0 0.0
2017-Sep-14 04:30N 46°09' W 001°13'0 0.0
2017-Sep-14 04:00N 46°09' W 001°13'0 0.0
2017-Sep-14 03:21N 46°09' W 001°13'0 0.0
2017-Sep-14 03:00N 46°09' W 001°13'0 0.0
2017-Sep-14 02:30N 46°09' W 001°13'0 0.0
2017-Sep-14 02:00N 46°09' W 001°13'0 0.0
2017-Sep-14 01:30N 46°09' W 001°13'0 0.0
2017-Sep-14 01:00N 46°09' W 001°13'0 0.0
2017-Sep-14 00:30N 46°09' W 001°13'0 0.0
2017-Sep-13 23:57N 46°09' W 001°13'0 0.0
2017-Sep-13 23:30N 46°09' W 001°13'0 0.0
2017-Sep-13 23:00N 46°09' W 001°13'0 0.0
2017-Sep-13 22:30N 46°09' W 001°13'0 0.0
2017-Sep-13 22:00N 46°09' W 001°13'0 0.0
2017-Sep-13 21:30N 46°09' W 001°13'0 0.0
2017-Sep-13 21:00N 46°09' W 001°13'0 0.0
2017-Sep-13 20:30N 46°09' W 001°13'0 0.0
2017-Sep-13 20:00N 46°09' W 001°13'0 0.0
2017-Sep-13 19:30N 46°09' W 001°13'0 0.0
2017-Sep-13 18:51N 46°09' W 001°13'0 0.0
2017-Sep-13 18:30N 46°09' W 001°13'0 0.0
2017-Sep-13 18:00N 46°09' W 001°13'0 0.0
2017-Sep-13 17:30N 46°09' W 001°13'0 0.0
2017-Sep-13 17:00N 46°09' W 001°13'0 0.0
2017-Sep-13 16:30N 46°09' W 001°13'0 0.0
2017-Sep-13 15:57N 46°09' W 001°13'0 0.0
2017-Sep-13 15:24N 46°09' W 001°13'0 0.0
2017-Sep-13 15:00N 46°09' W 001°13'0 0.0
2017-Sep-13 14:30N 46°09' W 001°13'0 0.0
2017-Sep-13 14:00N 46°09' W 001°13'0 0.0
2017-Sep-13 13:30N 46°09' W 001°13'0 0.0
2017-Sep-13 13:00N 46°09' W 001°13'0 0.0
2017-Sep-13 12:30N 46°09' W 001°13'0 0.0
2017-Sep-13 12:00N 46°09' W 001°13'0 0.0
2017-Sep-13 11:30N 46°09' W 001°13'0 0.0
2017-Sep-13 11:00N 46°09' W 001°13'0 0.0
2017-Sep-13 10:27N 46°09' W 001°13'0 0.0
2017-Sep-13 10:00N 46°09' W 001°13'0 0.0
2017-Sep-13 09:30N 46°09' W 001°13'0 0.0
2017-Sep-13 09:00N 46°09' W 001°13'0 0.0
2017-Sep-13 08:30N 46°09' W 001°13'0 0.0
2017-Sep-13 08:00N 46°09' W 001°13'0 0.0
2017-Sep-13 07:30N 46°09' W 001°13'0 0.0
2017-Sep-13 06:57N 46°09' W 001°13'0 0.0
2017-Sep-13 06:30N 46°09' W 001°13'0 0.0
2017-Sep-13 06:00N 46°09' W 001°13'0 0.0
2017-Sep-13 05:27N 46°09' W 001°13'0 0.0
2017-Sep-13 05:00N 46°09' W 001°13'0 0.0
2017-Sep-13 04:26N 46°09' W 001°13'0 0.0
2017-Sep-13 03:59N 46°09' W 001°13'0 0.0
2017-Sep-13 03:29N 46°09' W 001°13'0 0.0
2017-Sep-13 02:59N 46°09' W 001°13'0 0.0
2017-Sep-13 02:29N 46°09' W 001°13'0 0.0
2017-Sep-13 01:59N 46°09' W 001°13'0 0.0
2017-Sep-13 01:29N 46°09' W 001°13'0 0.0
2017-Sep-13 00:59N 46°09' W 001°13'0 0.0
2017-Sep-13 00:29N 46°09' W 001°13'0 0.0
2017-Sep-12 23:59N 46°09' W 001°13'0 0.0
2017-Sep-12 23:26N 46°09' W 001°13'0 0.0
2017-Sep-12 22:59N 46°09' W 001°13'0 0.0
2017-Sep-12 22:29N 46°09' W 001°13'0 0.0
2017-Sep-12 21:59N 46°09' W 001°13'0 0.0
2017-Sep-12 21:29N 46°09' W 001°13'0 0.0
2017-Sep-12 20:59N 46°09' W 001°13'0 0.0
2017-Sep-12 20:29N 46°09' W 001°13'0 0.0
2017-Sep-12 19:53N 46°09' W 001°13'0 0.0
2017-Sep-12 19:29N 46°09' W 001°13'0 0.0
2017-Sep-12 18:59N 46°09' W 001°13'0 0.0
2017-Sep-12 18:29N 46°09' W 001°13'0 0.0
2017-Sep-12 17:59N 46°09' W 001°13'0 0.0
2017-Sep-12 17:29N 46°09' W 001°13'0 0.0
2017-Sep-12 16:56N 46°09' W 001°13'0 0.0
2017-Sep-12 16:29N 46°09' W 001°13'0 0.0
2017-Sep-12 15:56N 46°09' W 001°13'0 0.0
2017-Sep-12 15:29N 46°09' W 001°13'0 0.0
2017-Sep-12 14:59N 46°09' W 001°13'0 0.0
2017-Sep-12 14:29N 46°09' W 001°13'0 0.0
2017-Sep-12 13:59N 46°09' W 001°13'0 0.0
2017-Sep-12 13:29N 46°09' W 001°13'0 0.0
2017-Sep-12 12:56N 46°09' W 001°13'0 0.0
2017-Sep-12 12:26N 46°09' W 001°13'0 0.0
2017-Sep-12 11:59N 46°09' W 001°13'0 0.0
2017-Sep-12 11:29N 46°09' W 001°13'0 0.0
2017-Sep-12 10:59N 46°09' W 001°13'0 0.0
2017-Sep-12 10:29N 46°09' W 001°13'0 0.0
2017-Sep-12 09:56N 46°09' W 001°13'0 0.0
2017-Sep-12 09:29N 46°09' W 001°13'0 0.0
2017-Sep-12 08:59N 46°09' W 001°13'0 0.0
2017-Sep-12 08:29N 46°09' W 001°13'0 0.0
2017-Sep-12 07:59N 46°09' W 001°13'0 0.0
2017-Sep-12 07:29N 46°09' W 001°13'0 1.0
2017-Sep-12 07:01N 46°09' W 001°13'3 6.4
2017-Sep-12 06:31N 46°07' W 001°15'2 3.9
2017-Sep-12 06:01N 46°05' W 001°13'0 0.4
2017-Sep-12 05:30N 46°05' W 001°13'0 0.0
2017-Sep-12 05:00N 46°05' W 001°13'0 0.0
2017-Sep-12 04:30N 46°05' W 001°13'0 0.0
2017-Sep-12 04:00N 46°05' W 001°13'0 0.0
2017-Sep-12 03:30N 46°05' W 001°13'0 0.0
2017-Sep-12 03:00N 46°05' W 001°13'0 0.0
2017-Sep-12 02:30N 46°05' W 001°13'  
Track history (hours):
 
Tides and Currents Weather Stations Pressure Air Temp Water Temp Dewpoint Dewpoint Depression Visibility Wind Speed Wind Dir Waves Ship Positions

Burgtor

Last reported at 2017-Sep-22 02:00 UTC. Time now 2017-Sep-22 13:40 UTC.
Position N 53°11' E 005°26'.

Length 87 m; draft 3.7 m.

Type: Cargo ship. MMSI: 304665000.

Date/timePositionNaut miles runAvg speedWind from/ knotsBaromVisibWave heightAir tempDewpointWater temp
2017-Sep-22 02:00N 53°11' E 005°26'0 0.0
2017-Sep-22 01:30N 53°11' E 005°26'0 0.0
2017-Sep-22 01:01N 53°11' E 005°26'0 0.0
2017-Sep-22 00:31N 53°11' E 005°26'0 0.0
2017-Sep-22 00:01N 53°11' E 005°26'0 0.0
2017-Sep-21 23:30N 53°11' E 005°26'0 0.0
2017-Sep-21 23:01N 53°11' E 005°26'0 0.0
2017-Sep-21 22:31N 53°11' E 005°26'0 0.0
2017-Sep-21 22:01N 53°11' E 005°26'0 0.0
2017-Sep-21 21:31N 53°11' E 005°26'0 0.0
2017-Sep-21 21:01N 53°11' E 005°26'0 0.0
2017-Sep-21 20:31N 53°11' E 005°26'0 0.0
2017-Sep-21 20:01N 53°11' E 005°26'0 0.0
2017-Sep-21 19:31N 53°11' E 005°26'0 0.0
2017-Sep-21 19:01N 53°11' E 005°26'0 0.0
2017-Sep-21 18:30N 53°11' E 005°26'0 0.0
2017-Sep-21 18:00N 53°11' E 005°26'0 0.0
2017-Sep-21 17:31N 53°11' E 005°26'0 0.0
2017-Sep-21 17:01N 53°11' E 005°26'0 0.0
2017-Sep-21 16:31N 53°11' E 005°26'0 0.0
2017-Sep-21 16:01N 53°11' E 005°26'0 0.0
2017-Sep-21 15:31N 53°11' E 005°26'0 0.0
2017-Sep-21 15:01N 53°11' E 005°26'0 0.0
2017-Sep-21 14:31N 53°11' E 005°26'0 0.0
2017-Sep-21 14:01N 53°11' E 005°26'0 0.0
2017-Sep-21 13:31N 53°11' E 005°26'0 0.0
2017-Sep-21 13:00N 53°11' E 005°26'0 0.0
2017-Sep-21 12:31N 53°11' E 005°26'0 0.0
2017-Sep-21 12:00N 53°11' E 005°26'0 0.0
2017-Sep-21 11:31N 53°11' E 005°26'0 0.0
2017-Sep-21 11:01N 53°11' E 005°26'0 0.0
2017-Sep-21 10:31N 53°11' E 005°26'0 0.0
2017-Sep-21 10:00N 53°11' E 005°26'0 0.0
2017-Sep-21 09:30N 53°11' E 005°26'0 0.0
2017-Sep-21 09:01N 53°11' E 005°26'0 0.0
2017-Sep-21 08:31N 53°11' E 005°26'0 0.0
2017-Sep-21 08:00N 53°11' E 005°26'0 0.2
2017-Sep-21 07:30N 53°11' E 005°26'0 0.0
2017-Sep-21 07:00N 53°11' E 005°26'0 0.0
2017-Sep-21 06:31N 53°11' E 005°26'0 0.0
2017-Sep-21 06:01N 53°11' E 005°26'0 0.0
2017-Sep-21 05:31N 53°11' E 005°26'1 1.2
2017-Sep-21 05:01N 53°11' E 005°25'3 5.0
2017-Sep-21 04:31N 53°11' E 005°21'4 8.2
2017-Sep-21 04:01N 53°14' E 005°15'4 7.9
2017-Sep-21 03:31N 53°16' E 005°10'4 7.4
2017-Sep-21 03:01N 53°19' E 005°09'4 7.7
2017-Sep-21 02:31N 53°19' E 005°02'3 6.8
2017-Sep-21 02:01N 53°18' E 004°57'3 6.0
2017-Sep-21 01:31N 53°21' E 004°57'4 8.8
2017-Sep-21 01:01N 53°25' E 005°01'510.4
2017-Sep-21 00:30N 53°27' E 005°09'510.2
2017-Sep-21 00:00N 53°29' E 005°17'510.2
2017-Sep-20 23:31N 53°30' E 005°26'50 5.3
2017-Sep-20 14:00N 53°27' E 006°50'0 0.0
2017-Sep-20 13:27N 53°27' E 006°50'0 0.0
2017-Sep-20 11:42N 53°27' E 006°50'0 0.0
2017-Sep-20 11:06N 53°27' E 006°50'0 0.0
2017-Sep-20 11:00N 53°27' E 006°50'0 0.0
2017-Sep-20 10:15N 53°27' E 006°50'0 0.0
2017-Sep-20 09:57N 53°27' E 006°50'0 0.0
2017-Sep-20 09:12N 53°27' E 006°50'0 0.0
2017-Sep-20 08:57N 53°27' E 006°50'0 0.0
2017-Sep-20 08:30N 53°27' E 006°50'0 0.0
2017-Sep-20 08:00N 53°27' E 006°50'0 0.0
2017-Sep-20 04:44N 53°27' E 006°50'0 0.0
2017-Sep-20 04:20N 53°27' E 006°50'0 0.0
2017-Sep-19 23:53N 53°27' E 006°50'0 0.0
2017-Sep-19 23:17N 53°27' E 006°50'0 0.0
2017-Sep-19 22:59N 53°27' E 006°50'0 0.0
2017-Sep-19 22:29N 53°27' E 006°50'0 0.0
2017-Sep-19 21:56N 53°27' E 006°50'0 0.0
2017-Sep-19 21:29N 53°27' E 006°50'0 0.0
2017-Sep-19 20:59N 53°27' E 006°50'0 0.0
2017-Sep-19 20:29N 53°27' E 006°50'0 0.0
2017-Sep-19 19:53N 53°27' E 006°50'0 0.0
2017-Sep-19 17:20N 53°27' E 006°50'0 0.1
2017-Sep-19 16:59N 53°27' E 006°50'0 0.0
2017-Sep-19 16:29N 53°27' E 006°50'0 0.0
2017-Sep-19 15:59N 53°27' E 006°50'0 0.0
2017-Sep-19 15:26N 53°27' E 006°50'0 0.0
2017-Sep-19 14:59N 53°27' E 006°50'0 0.0
2017-Sep-19 14:29N 53°27' E 006°50'0 0.0
2017-Sep-19 13:56N 53°27' E 006°50'0 0.0
2017-Sep-19 13:29N 53°27' E 006°50'0 0.0
2017-Sep-19 11:53N 53°27' E 006°50'0 0.0
2017-Sep-19 11:17N 53°27' E 006°50'0 0.0
2017-Sep-19 10:59N 53°27' E 006°50'0 0.0
2017-Sep-19 10:26N 53°27' E 006°50'0 0.0
2017-Sep-19 09:44N 53°27' E 006°50'0 0.0
2017-Sep-19 09:29N 53°27' E 006°50'0 0.0
2017-Sep-19 08:53N 53°27' E 006°50'0 0.0
2017-Sep-19 08:29N 53°27' E 006°50'0 0.0
2017-Sep-19 07:59N 53°27' E 006°50'0 0.0
2017-Sep-19 00:28N 53°27' E 006°50'0 0.7
2017-Sep-19 00:01N 53°27' E 006°50'48 3.7
2017-Sep-18 10:53N 53°34' E 005°30'3 7.6
2017-Sep-18 10:28N 53°33' E 005°25'4 7.8
2017-Sep-18 10:01N 53°32' E 005°19'4 8.2
2017-Sep-18 09:30N 53°31' E 005°13'4 8.3
2017-Sep-18 09:01N 53°29' E 005°06'4 8.7
2017-Sep-18 08:30N 53°27' E 004°59'4 8.7
2017-Sep-18 08:01N 53°26' E 004°53'5 8.7
2017-Sep-18 07:25N 53°24' E 004°45'38 9.0
2017-Sep-18 03:11N 52°51' E 004°13'3 9.6
2017-Sep-18 02:50N 52°48' E 004°10'7 9.7
2017-Sep-18 02:04N 52°42' E 004°03'90 8.3
2017-Sep-17 15:13N 51°36' E 002°24'2 7.8
2017-Sep-17 14:57N 51°34' E 002°22'4 8.1
2017-Sep-17 14:30N 51°31' E 002°18'4 8.3
2017-Sep-17 14:00N 51°28' E 002°15'4 8.6
2017-Sep-17 13:30N 51°24' E 002°12'4 8.8
2017-Sep-17 13:01N 51°20' E 002°09'5 9.3
2017-Sep-17 12:31N 51°16' E 002°06'5 9.2
2017-Sep-17 12:01N 51°12' E 002°01'5 9.7
2017-Sep-17 11:31N 51°10' E 001°55'510.1
2017-Sep-17 11:01N 51°06' E 001°48'510.5
2017-Sep-17 10:30N 51°03' E 001°43'510.8
2017-Sep-17 10:00N 50°59' E 001°37'611.2
2017-Sep-17 09:30N 50°54' E 001°31'1210.7
2017-Sep-17 08:20N 50°43' E 001°24'58 8.8
2017-Sep-17 01:47N 50°18' E 000°02'6 7.6
2017-Sep-17 01:02N 50°16' W 000°07'0 7.4
2017-Sep-17 01:00N 50°16' W 000°07'105 9.3
2017-Sep-16 13:47N 49°49' W 002°44'3 9.5
2017-Sep-16 13:29N 49°48' W 002°49'18 8.9
2017-Sep-16 11:26N 49°40' W 003°14'4 8.6
2017-Sep-16 11:01N 49°39' W 003°19'5 8.4
2017-Sep-16 10:24N 49°36' W 003°26'4 8.2
2017-Sep-16 09:58N 49°35' W 003°31'82 8.3
2017-Sep-16 00:01N 48°53' W 005°19'51 5.8
2017-Sep-15 15:18N 48°02' W 005°13'2 6.4
2017-Sep-15 14:57N 48°01' W 005°10'3 6.3
2017-Sep-15 14:30N 47°59' W 005°07'3 6.4
2017-Sep-15 14:00N 47°57' W 005°03'3 6.3
2017-Sep-15 13:31N 47°55' W 004°59'3 6.3
2017-Sep-15 13:00N 47°53' W 004°56'3 6.7
2017-Sep-15 12:31N 47°51' W 004°52'3 6.8
2017-Sep-15 12:00N 47°49' W 004°48'3 6.8
2017-Sep-15 11:30N 47°47' W 004°44'26 7.4
2017-Sep-15 08:02N 47°31' W 004°14'2 7.3
2017-Sep-15 07:45N 47°30' W 004°11'2 7.4
2017-Sep-15 07:27N 47°29' W 004°08'3 6.6
2017-Sep-15 06:59N 47°27' W 004°05'4 7.7
2017-Sep-15 06:29N 47°25' W 004°00'4 8.0
2017-Sep-15 05:59N 47°22' W 003°56'4 7.8
2017-Sep-15 05:30N 47°20' W 003°52'4 7.9
2017-Sep-15 05:01N 47°17' W 003°47'4 8.0
2017-Sep-15 04:31N 47°15' W 003°42'4 7.9
2017-Sep-15 04:00N 47°12' W 003°38'4 7.8
2017-Sep-15 03:30N 47°10' W 003°33'4 7.7
2017-Sep-15 03:00N 47°08' W 003°28'4 7.4
2017-Sep-15 02:30N 47°06' W 003°24'5 7.4
2017-Sep-15 01:49N 47°02' W 003°19'3 7.1
2017-Sep-15 01:27N 47°00' W 003°16'4 6.9
2017-Sep-15 00:57N 46°58' W 003°12'7 6.6
2017-Sep-14 23:49N 46°53' W 003°04'3 6.3
2017-Sep-14 23:22N 46°51' W 003°01'30 6.5
2017-Sep-14 18:46N 46°33' W 002°27'2 6.5
2017-Sep-14 18:30N 46°32' W 002°25'3 6.6
2017-Sep-14 18:00N 46°29' W 002°21'3 6.5
2017-Sep-14 17:30N 46°27' W 002°17'3 6.5
2017-Sep-14 16:59N 46°25' W 002°14'3 6.7
2017-Sep-14 16:30N 46°24' W 002°10'3 6.8
2017-Sep-14 16:00N 46°21' W 002°06'3 6.8
2017-Sep-14 15:30N 46°19' W 002°02'3 6.7
2017-Sep-14 15:01N 46°17' W 001°58'3 6.8
2017-Sep-14 14:30N 46°15' W 001°55'3 6.7
2017-Sep-14 14:01N 46°13' W 001°51'3 6.4
2017-Sep-14 13:31N 46°11' W 001°48'4 6.5
2017-Sep-14 12:50N 46°08' W 001°42'2 6.3
2017-Sep-14 12:30N 46°08' W 001°40'4 6.2
2017-Sep-14 11:56N 46°07' W 001°34'3 6.5
2017-Sep-14 11:31N 46°07' W 001°30'3 6.7
2017-Sep-14 11:01N 46°06' W 001°26'4 7.1
2017-Sep-14 10:31N 46°06' W 001°21'3 6.6
2017-Sep-14 10:01N 46°06' W 001°16'4 7.6
2017-Sep-14 09:31N 46°09' W 001°14'1 1.4
2017-Sep-14 09:00N 46°09' W 001°13'0 0.0
2017-Sep-14 08:27N 46°09' W 001°13'0 0.0
2017-Sep-14 08:00N 46°09' W 001°13'0 0.0
2017-Sep-14 07:30N 46°09' W 001°13'0 0.0
2017-Sep-14 07:00N 46°09' W 001°13'0 0.0
2017-Sep-14 06:30N 46°09' W 001°13'0 0.0
2017-Sep-14 06:00N 46°09' W 001°13'0 0.0
2017-Sep-14 05:30N 46°09' W 001°13'0 0.0
2017-Sep-14 04:57N 46°09' W 001°13'0 0.0
2017-Sep-14 04:30N 46°09' W 001°13'0 0.0
2017-Sep-14 04:00N 46°09' W 001°13'0 0.0
2017-Sep-14 03:21N 46°09' W 001°13'0 0.0
2017-Sep-14 03:00N 46°09' W 001°13'0 0.0
2017-Sep-14 02:30N 46°09' W 001°13'0 0.0
2017-Sep-14 02:00N 46°09' W 001°13'0 0.0
2017-Sep-14 01:30N 46°09' W 001°13'0 0.0
2017-Sep-14 01:00N 46°09' W 001°13'0 0.0
2017-Sep-14 00:30N 46°09' W 001°13'0 0.0
2017-Sep-13 23:57N 46°09' W 001°13'0 0.0
2017-Sep-13 23:30N 46°09' W 001°13'0 0.0
2017-Sep-13 23:00N 46°09' W 001°13'0 0.0
2017-Sep-13 22:30N 46°09' W 001°13'0 0.0
2017-Sep-13 22:00N 46°09' W 001°13'0 0.0
2017-Sep-13 21:30N 46°09' W 001°13'0 0.0
2017-Sep-13 21:00N 46°09' W 001°13'0 0.0
2017-Sep-13 20:30N 46°09' W 001°13'0 0.0
2017-Sep-13 20:00N 46°09' W 001°13'0 0.0
2017-Sep-13 19:30N 46°09' W 001°13'0 0.0
2017-Sep-13 18:51N 46°09' W 001°13'0 0.0
2017-Sep-13 18:30N 46°09' W 001°13'0 0.0
2017-Sep-13 18:00N 46°09' W 001°13'0 0.0
2017-Sep-13 17:30N 46°09' W 001°13'0 0.0
2017-Sep-13 17:00N 46°09' W 001°13'0 0.0
2017-Sep-13 16:30N 46°09' W 001°13'0 0.0
2017-Sep-13 15:57N 46°09' W 001°13'0 0.0
2017-Sep-13 15:24N 46°09' W 001°13'0 0.0
2017-Sep-13 15:00N 46°09' W 001°13'0 0.0
2017-Sep-13 14:30N 46°09' W 001°13'0 0.0
2017-Sep-13 14:00N 46°09' W 001°13'0 0.0
2017-Sep-13 13:30N 46°09' W 001°13'0 0.0
2017-Sep-13 13:00N 46°09' W 001°13'0 0.0
2017-Sep-13 12:30N 46°09' W 001°13'0 0.0
2017-Sep-13 12:00N 46°09' W 001°13'0 0.0
2017-Sep-13 11:30N 46°09' W 001°13'0 0.0
2017-Sep-13 11:00N 46°09' W 001°13'0 0.0
2017-Sep-13 10:27N 46°09' W 001°13'0 0.0
2017-Sep-13 10:00N 46°09' W 001°13'0 0.0
2017-Sep-13 09:30N 46°09' W 001°13'0 0.0
2017-Sep-13 09:00N 46°09' W 001°13'0 0.0
2017-Sep-13 08:30N 46°09' W 001°13'0 0.0
2017-Sep-13 08:00N 46°09' W 001°13'0 0.0
2017-Sep-13 07:30N 46°09' W 001°13'0 0.0
2017-Sep-13 06:57N 46°09' W 001°13'0 0.0
2017-Sep-13 06:30N 46°09' W 001°13'0 0.0
2017-Sep-13 06:00N 46°09' W 001°13'0 0.0
2017-Sep-13 05:27N 46°09' W 001°13'0 0.0
2017-Sep-13 05:00N 46°09' W 001°13'0 0.0
2017-Sep-13 04:26N 46°09' W 001°13'0 0.0
2017-Sep-13 03:59N 46°09' W 001°13'0 0.0
2017-Sep-13 03:29N 46°09' W 001°13'0 0.0
2017-Sep-13 02:59N 46°09' W 001°13'0 0.0
2017-Sep-13 02:29N 46°09' W 001°13'0 0.0
2017-Sep-13 01:59N 46°09' W 001°13'0 0.0
2017-Sep-13 01:29N 46°09' W 001°13'0 0.0
2017-Sep-13 00:59N 46°09' W 001°13'0 0.0
2017-Sep-13 00:29N 46°09' W 001°13'0 0.0
2017-Sep-12 23:59N 46°09' W 001°13'0 0.0
2017-Sep-12 23:26N 46°09' W 001°13'0 0.0
2017-Sep-12 22:59N 46°09' W 001°13'0 0.0
2017-Sep-12 22:29N 46°09' W 001°13'0 0.0
2017-Sep-12 21:59N 46°09' W 001°13'0 0.0
2017-Sep-12 21:29N 46°09' W 001°13'0 0.0
2017-Sep-12 20:59N 46°09' W 001°13'0 0.0
2017-Sep-12 20:29N 46°09' W 001°13'0 0.0
2017-Sep-12 19:53N 46°09' W 001°13'0 0.0
2017-Sep-12 19:29N 46°09' W 001°13'0 0.0
2017-Sep-12 18:59N 46°09' W 001°13'0 0.0
2017-Sep-12 18:29N 46°09' W 001°13'0 0.0
2017-Sep-12 17:59N 46°09' W 001°13'0 0.0
2017-Sep-12 17:29N 46°09' W 001°13'0 0.0
2017-Sep-12 16:56N 46°09' W 001°13'0 0.0
2017-Sep-12 16:29N 46°09' W 001°13'0 0.0
2017-Sep-12 15:56N 46°09' W 001°13'0 0.0
2017-Sep-12 15:29N 46°09' W 001°13'0 0.0
2017-Sep-12 14:59N 46°09' W 001°13'0 0.0
2017-Sep-12 14:29N 46°09' W 001°13'0 0.0
2017-Sep-12 13:59N 46°09' W 001°13'0 0.0
2017-Sep-12 13:29N 46°09' W 001°13'0 0.0
2017-Sep-12 12:56N 46°09' W 001°13'0 0.0
2017-Sep-12 12:26N 46°09' W 001°13'0 0.0
2017-Sep-12 11:59N 46°09' W 001°13'0 0.0
2017-Sep-12 11:29N 46°09' W 001°13'0 0.0
2017-Sep-12 10:59N 46°09' W 001°13'0 0.0
2017-Sep-12 10:29N 46°09' W 001°13'0 0.0
2017-Sep-12 09:56N 46°09' W 001°13'0 0.0
2017-Sep-12 09:29N 46°09' W 001°13'0 0.0
2017-Sep-12 08:59N 46°09' W 001°13'0 0.0
2017-Sep-12 08:29N 46°09' W 001°13'0 0.0
2017-Sep-12 07:59N 46°09' W 001°13'0 0.0
2017-Sep-12 07:29N 46°09' W 001°13'0 1.0
2017-Sep-12 07:01N 46°09' W 001°13'3 6.4
2017-Sep-12 06:31N 46°07' W 001°15'2 3.9
2017-Sep-12 06:01N 46°05' W 001°13'0 0.4
2017-Sep-12 05:30N 46°05' W 001°13'0 0.0
2017-Sep-12 05:00N 46°05' W 001°13'0 0.0
2017-Sep-12 04:30N 46°05' W 001°13'0 0.0
2017-Sep-12 04:00N 46°05' W 001°13'0 0.0
2017-Sep-12 03:30N 46°05' W 001°13'0 0.0
2017-Sep-12 03:00N 46°05' W 001°13'0 0.0
2017-Sep-12 02:30N 46°05' W 001°13'  

Dump ship's entire track history